createdAt,value
2018-12-24T00:00:41.375Z,94.38
2018-12-24T00:01:41.353Z,94.73
2018-12-24T00:02:41.343Z,94.73
2018-12-24T00:03:41.331Z,94.59
2018-12-24T00:04:41.335Z,94.63
2018-12-24T00:05:41.333Z,94.63
2018-12-24T00:06:41.309Z,94.53
2018-12-24T00:07:41.285Z,94.84
2018-12-24T00:08:41.286Z,94.43
2018-12-24T00:09:41.292Z,94.69
2018-12-24T00:10:41.267Z,94.73
2018-12-24T00:11:41.264Z,94.84
2018-12-24T00:12:41.237Z,95.36
2018-12-24T00:13:41.224Z,95.36
2018-12-24T00:14:41.238Z,94.94
2018-12-24T00:15:41.210Z,93.91
2018-12-24T00:16:41.202Z,93.39
2018-12-24T00:17:41.178Z,93.18
2018-12-24T00:18:41.163Z,93.18
2018-12-24T00:19:41.166Z,93.18
2018-12-24T00:20:41.147Z,93.23
2018-12-24T00:21:41.149Z,93.54
2018-12-24T00:22:41.130Z,93.33
2018-12-24T00:23:41.110Z,94.06
2018-12-24T00:24:41.118Z,94.20
2018-12-24T00:25:41.078Z,94.31
2018-12-24T00:26:41.072Z,94.72
2018-12-24T00:27:41.064Z,94.82
2018-12-24T00:28:41.056Z,93.83
2018-12-24T00:29:41.085Z,93.73
2018-12-24T00:30:41.025Z,93.31
2018-12-24T00:31:41.035Z,92.74
2018-12-24T00:32:41.018Z,93.31
2018-12-24T00:33:41.004Z,93.46
2018-12-24T00:34:40.973Z,92.43
2018-12-24T00:35:40.998Z,92.01
2018-12-24T00:36:40.964Z,93.15
2018-12-24T00:37:40.952Z,92.94
2018-12-24T00:38:40.950Z,93.40
2018-12-24T00:39:41.044Z,93.29
2018-12-24T00:40:40.938Z,93.40
2018-12-24T00:41:40.900Z,93.60
2018-12-24T00:42:40.890Z,92.98
2018-12-24T00:43:40.886Z,92.47
2018-12-24T00:44:40.885Z,93.08
2018-12-24T00:45:40.890Z,92.78
2018-12-24T00:46:40.887Z,92.93
2018-12-24T00:47:40.844Z,92.05
2018-12-24T00:48:40.829Z,91.53
2018-12-24T00:49:40.814Z,91.12
2018-12-24T00:50:40.832Z,91.02
2018-12-24T00:51:40.800Z,91.22
2018-12-24T00:52:40.796Z,90.50
2018-12-24T00:53:40.766Z,90.19
2018-12-24T00:54:40.759Z,91.12
2018-12-24T00:55:40.760Z,91.16
2018-12-24T00:56:40.754Z,90.33
2018-12-24T00:57:40.726Z,89.81
2018-12-24T00:58:40.715Z,90.29
2018-12-24T00:59:40.695Z,90.54
2018-12-24T01:00:40.710Z,90.95
2018-12-24T01:01:40.668Z,90.85
2018-12-24T01:02:40.667Z,90.54
2018-12-24T01:03:40.653Z,90.39
2018-12-24T01:04:40.654Z,90.54
2018-12-24T01:05:40.654Z,91.37
2018-12-24T01:06:40.631Z,91.89
2018-12-24T01:07:40.610Z,90.95
2018-12-24T01:08:40.599Z,90.95
2018-12-24T01:09:40.597Z,91.78
2018-12-24T01:10:40.598Z,91.27
2018-12-24T01:11:40.566Z,91.68
2018-12-24T01:12:40.565Z,91.27
2018-12-24T01:13:40.544Z,91.27
2018-12-24T01:14:40.543Z,91.37
2018-12-24T01:15:40.559Z,91.27
2018-12-24T01:16:40.554Z,91.16
2018-12-24T01:17:40.504Z,91.27
2018-12-24T01:18:40.502Z,91.16
2018-12-24T01:19:40.485Z,90.54
2018-12-24T01:20:40.498Z,91.06
2018-12-24T01:21:40.470Z,91.06
2018-12-24T01:22:40.467Z,90.12
2018-12-24T01:23:40.445Z,89.50
2018-12-24T01:24:40.436Z,90.02
2018-12-24T01:25:40.435Z,90.54
2018-12-24T01:26:40.415Z,90.12
2018-12-24T01:27:40.399Z,90.44
2018-12-24T01:28:40.377Z,90.54
2018-12-24T01:29:40.379Z,90.64
2018-12-24T01:30:40.374Z,90.95
2018-12-24T01:31:40.388Z,90.54
2018-12-24T01:32:40.340Z,89.71
2018-12-24T01:33:40.337Z,90.02
2018-12-24T01:34:40.313Z,90.23
2018-12-24T01:35:40.309Z,90.54
2018-12-24T01:36:40.326Z,90.95
2018-12-24T01:37:40.274Z,90.33
2018-12-24T01:38:40.267Z,90.54
2018-12-24T01:39:40.316Z,90.44
2018-12-24T01:40:40.297Z,90.23
2018-12-24T01:41:40.261Z,90.23
2018-12-24T01:42:40.244Z,89.92
2018-12-24T01:43:40.281Z,90.02
2018-12-24T01:44:40.205Z,90.02
2018-12-24T01:45:40.197Z,90.33
2018-12-24T01:46:40.202Z,90.02
2018-12-24T01:47:40.188Z,89.40
2018-12-24T01:48:40.174Z,89.61
2018-12-24T01:49:40.139Z,89.81
2018-12-24T01:50:40.147Z,89.61
2018-12-24T01:51:40.142Z,89.09
2018-12-24T01:52:40.123Z,89.40
2018-12-24T01:53:40.107Z,89.92
2018-12-24T01:54:40.090Z,89.81
2018-12-24T01:55:40.156Z,90.44
2018-12-24T01:56:40.113Z,90.23
2018-12-24T01:57:40.062Z,90.44
2018-12-24T01:58:40.054Z,89.40
2018-12-24T01:59:40.048Z,89.65
2018-12-24T02:00:40.040Z,89.75
2018-12-24T02:01:40.036Z,89.34
2018-12-24T02:02:40.003Z,89.23
2018-12-24T02:03:39.988Z,89.75
2018-12-24T02:04:39.975Z,89.86
2018-12-24T02:05:39.978Z,89.96
2018-12-24T02:06:39.982Z,89.03
2018-12-24T02:07:39.962Z,88.51
2018-12-24T02:08:39.933Z,88.51
2018-12-24T02:09:39.930Z,89.23
2018-12-24T02:10:39.919Z,89.86
2018-12-24T02:11:40.035Z,90.27
2018-12-24T02:12:42.291Z,89.86
2018-12-24T02:13:39.889Z,90.17
2018-12-24T02:14:39.875Z,90.17
2018-12-24T02:15:39.863Z,89.75
2018-12-24T02:16:39.890Z,88.92
2018-12-24T02:17:39.839Z,89.03
2018-12-24T02:18:39.847Z,89.37
2018-12-24T02:19:39.818Z,89.54
2018-12-24T02:20:39.805Z,89.65
2018-12-24T02:21:39.789Z,90.41
2018-12-24T02:22:39.804Z,90.41
2018-12-24T02:23:39.782Z,89.58
2018-12-24T02:24:39.766Z,89.79
2018-12-24T02:25:39.751Z,89.23
2018-12-24T02:26:39.738Z,89.89
2018-12-24T02:27:39.747Z,89.44
2018-12-24T02:28:39.717Z,88.71
2018-12-24T02:29:39.711Z,88.23
2018-12-24T02:30:39.694Z,88.30
2018-12-24T02:31:39.693Z,87.30
2018-12-24T02:32:39.692Z,88.44
2018-12-24T02:33:39.660Z,88.23
2018-12-24T02:34:39.656Z,87.71
2018-12-24T02:35:39.653Z,87.71
2018-12-24T02:36:39.655Z,88.44
2018-12-24T02:37:39.641Z,88.13
2018-12-24T02:38:39.613Z,88.85
2018-12-24T02:39:39.614Z,88.54
2018-12-24T02:40:39.585Z,88.96
2018-12-24T02:41:39.588Z,88.85
2018-12-24T02:42:39.583Z,88.85
2018-12-24T02:43:39.580Z,89.17
2018-12-24T02:44:39.554Z,88.65
2018-12-24T02:45:39.539Z,88.96
2018-12-24T02:46:39.529Z,88.85
2018-12-24T02:47:39.521Z,88.96
2018-12-24T02:48:39.503Z,88.44
2018-12-24T02:49:39.488Z,88.44
2018-12-24T02:50:39.481Z,88.85
2018-12-24T02:51:39.490Z,88.23
2018-12-24T02:52:39.475Z,87.82
2018-12-24T02:53:39.455Z,87.82
2018-12-24T02:54:39.476Z,87.92
2018-12-24T02:55:39.429Z,88.02
2018-12-24T02:56:39.438Z,88.17
2018-12-24T02:57:39.439Z,88.13
2018-12-24T02:58:39.386Z,88.07
2018-12-24T02:59:39.381Z,88.48
2018-12-24T03:00:39.378Z,87.96
2018-12-24T03:01:39.359Z,88.28
2018-12-24T03:02:39.378Z,88.07
2018-12-24T03:03:39.325Z,87.65
2018-12-24T03:04:39.327Z,88.17
2018-12-24T03:05:39.328Z,87.86
2018-12-24T03:06:39.313Z,88.17
2018-12-24T03:07:39.317Z,88.17
2018-12-24T03:08:39.274Z,88.90
2018-12-24T03:09:39.263Z,88.17
2018-12-24T03:10:39.264Z,88.28
2018-12-24T03:11:39.246Z,88.28
2018-12-24T03:12:39.284Z,88.07
2018-12-24T03:13:39.216Z,88.69
2018-12-24T03:14:39.214Z,88.28
2018-12-24T03:15:39.199Z,88.69
2018-12-24T03:16:39.195Z,88.69
2018-12-24T03:17:39.182Z,89.00
2018-12-24T03:18:39.174Z,88.28
2018-12-24T03:19:39.176Z,88.28
2018-12-24T03:20:39.136Z,87.86
2018-12-24T03:21:39.140Z,88.17
2018-12-24T03:22:39.133Z,87.65
2018-12-24T03:23:39.130Z,88.28
2018-12-24T03:24:39.114Z,87.86
2018-12-24T03:25:39.112Z,87.90
2018-12-24T03:26:39.075Z,88.62
2018-12-24T03:27:39.060Z,88.31
2018-12-24T03:28:39.077Z,88.38
2018-12-24T03:29:39.059Z,88.48
2018-12-24T03:30:39.068Z,88.21
2018-12-24T03:31:39.041Z,88.10
2018-12-24T03:32:39.025Z,88.28
2018-12-24T03:33:39.019Z,87.76
2018-12-24T03:34:38.990Z,88.28
2018-12-24T03:35:38.972Z,88.73
2018-12-24T03:36:38.966Z,88.17
2018-12-24T03:37:38.956Z,88.48
2018-12-24T03:38:38.978Z,88.59
2018-12-24T03:39:38.959Z,88.52
2018-12-24T03:40:38.955Z,88.17
2018-12-24T03:41:38.920Z,88.28
2018-12-24T03:42:38.910Z,88.48
2018-12-24T03:43:38.910Z,89.17
2018-12-24T03:44:38.877Z,88.48
2018-12-24T03:45:38.875Z,88.69
2018-12-24T03:46:38.869Z,89.00
2018-12-24T03:47:38.852Z,88.28
2018-12-24T03:48:38.845Z,88.59
2018-12-24T03:49:38.823Z,88.28
2018-12-24T03:50:38.822Z,89.00
2018-12-24T03:51:38.821Z,88.73
2018-12-24T03:52:38.797Z,88.90
2018-12-24T03:53:38.803Z,88.59
2018-12-24T03:54:38.761Z,89.21
2018-12-24T03:55:38.860Z,89.21
2018-12-24T03:56:38.749Z,89.73
2018-12-24T03:57:38.747Z,90.04
2018-12-24T03:58:38.754Z,89.87
2018-12-24T03:59:38.727Z,89.87
2018-12-24T04:00:38.705Z,89.36
2018-12-24T04:01:38.707Z,89.98
2018-12-24T04:02:38.688Z,90.60
2018-12-24T04:03:38.687Z,89.98
2018-12-24T04:04:38.669Z,90.19
2018-12-24T04:05:38.640Z,90.19
2018-12-24T04:06:38.632Z,90.39
2018-12-24T04:07:38.629Z,90.54
2018-12-24T04:08:38.636Z,90.39
2018-12-24T04:09:38.603Z,89.98
2018-12-24T04:10:38.607Z,90.23
2018-12-24T04:11:38.585Z,88.67
2018-12-24T04:12:38.566Z,88.04
2018-12-24T04:13:38.584Z,87.32
2018-12-24T04:14:38.553Z,86.63
2018-12-24T04:15:38.563Z,86.32
2018-12-24T04:16:38.527Z,85.49
2018-12-24T04:17:38.527Z,85.38
2018-12-24T04:18:38.555Z,85.17
2018-12-24T04:19:38.498Z,85.06
2018-12-24T04:20:38.497Z,84.86
2018-12-24T04:21:38.591Z,84.86
2018-12-24T04:22:38.468Z,84.65
2018-12-24T04:23:38.454Z,85.06
2018-12-24T04:24:38.467Z,85.80
2018-12-24T04:25:38.434Z,85.59
2018-12-24T04:26:38.432Z,85.90
2018-12-24T04:27:41.843Z,85.38
2018-12-24T04:28:38.395Z,85.49
2018-12-24T04:29:38.410Z,85.38
2018-12-24T04:30:38.364Z,85.80
2018-12-24T04:31:38.375Z,86.25
2018-12-24T04:32:38.391Z,86.46
2018-12-24T04:33:38.347Z,86.32
2018-12-24T04:34:38.352Z,85.73
2018-12-24T04:35:38.321Z,86.46
2018-12-24T04:36:38.315Z,87.50
2018-12-24T04:37:38.304Z,86.98
2018-12-24T04:38:38.299Z,87.19
2018-12-24T04:39:38.291Z,86.98
2018-12-24T04:40:38.272Z,87.40
2018-12-24T04:41:38.262Z,87.71
2018-12-24T04:42:38.246Z,86.77
2018-12-24T04:43:38.244Z,86.67
2018-12-24T04:44:38.238Z,86.67
2018-12-24T04:45:38.217Z,86.77
2018-12-24T04:46:38.197Z,86.67
2018-12-24T04:47:38.194Z,87.19
2018-12-24T04:48:38.180Z,87.29
2018-12-24T04:49:38.193Z,86.88
2018-12-24T04:50:38.154Z,86.67
2018-12-24T04:51:38.169Z,86.77
2018-12-24T04:52:38.136Z,87.40
2018-12-24T04:53:38.129Z,87.40
2018-12-24T04:54:38.136Z,87.54
2018-12-24T04:55:38.107Z,87.40
2018-12-24T04:56:38.084Z,87.60
2018-12-24T04:57:38.080Z,87.43
2018-12-24T04:58:38.072Z,86.60
2018-12-24T04:59:38.072Z,87.43
2018-12-24T05:00:38.071Z,87.43
2018-12-24T05:01:38.149Z,87.71
2018-12-24T05:02:38.014Z,87.92
2018-12-24T05:03:38.028Z,87.54
2018-12-24T05:04:38.027Z,87.65
2018-12-24T05:05:38.018Z,87.43
2018-12-24T05:06:37.978Z,87.75
2018-12-24T05:07:37.966Z,88.27
2018-12-24T05:08:37.958Z,87.85
2018-12-24T05:09:37.978Z,87.85
2018-12-24T05:10:37.930Z,88.06
2018-12-24T05:11:37.929Z,88.48
2018-12-24T05:12:37.909Z,87.75
2018-12-24T05:13:40.945Z,88.17
2018-12-24T05:14:37.893Z,87.96
2018-12-24T05:15:37.905Z,87.85
2018-12-24T05:16:37.875Z,87.96
2018-12-24T05:17:37.859Z,87.33
2018-12-24T05:18:37.851Z,87.54
2018-12-24T05:19:37.843Z,87.54
2018-12-24T05:20:37.850Z,87.85
2018-12-24T05:21:37.806Z,88.17
2018-12-24T05:22:37.815Z,88.27
2018-12-24T05:23:37.793Z,88.17
2018-12-24T05:24:37.821Z,88.02
2018-12-24T05:25:37.791Z,88.23
2018-12-24T05:26:37.755Z,87.96
2018-12-24T05:27:37.745Z,87.29
2018-12-24T05:28:37.736Z,87.19
2018-12-24T05:29:37.726Z,87.60
2018-12-24T05:30:37.721Z,87.23
2018-12-24T05:31:37.699Z,87.71
2018-12-24T05:32:37.697Z,88.27
2018-12-24T05:33:37.685Z,88.27
2018-12-24T05:34:37.663Z,87.96
2018-12-24T05:35:37.681Z,88.27
2018-12-24T05:36:37.665Z,88.17
2018-12-24T05:37:37.735Z,87.96
2018-12-24T05:38:37.635Z,88.17
2018-12-24T05:39:37.625Z,88.58
2018-12-24T05:40:37.607Z,88.06
2018-12-24T05:41:37.595Z,87.85
2018-12-24T05:42:37.585Z,88.17
2018-12-24T05:43:37.574Z,88.48
2018-12-24T05:44:37.568Z,87.54
2018-12-24T05:45:37.559Z,87.23
2018-12-24T05:46:37.535Z,86.60
2018-12-24T05:47:37.529Z,86.19
2018-12-24T05:48:37.529Z,86.81
2018-12-24T05:49:37.511Z,86.71
2018-12-24T05:50:37.529Z,87.02
2018-12-24T05:51:37.485Z,86.75
2018-12-24T05:52:37.481Z,85.50
2018-12-24T05:53:37.467Z,85.08
2018-12-24T05:54:37.463Z,85.39
2018-12-24T05:55:37.477Z,86.06
2018-12-24T05:56:37.435Z,85.91
2018-12-24T05:57:37.416Z,86.16
2018-12-24T05:58:37.409Z,86.27
2018-12-24T05:59:37.403Z,86.37
2018-12-24T06:00:37.421Z,86.16
2018-12-24T06:01:37.384Z,86.99
2018-12-24T06:02:37.357Z,86.79
2018-12-24T06:03:37.402Z,86.68
2018-12-24T06:04:37.343Z,86.79
2018-12-24T06:05:37.341Z,86.16
2018-12-24T06:06:37.348Z,85.53
2018-12-24T06:07:37.306Z,85.36
2018-12-24T06:08:37.298Z,85.96
2018-12-24T06:09:37.290Z,86.10
2018-12-24T06:10:37.269Z,84.28
2018-12-24T06:11:37.278Z,83.70
2018-12-24T06:12:37.255Z,83.35
2018-12-24T06:13:37.247Z,83.28
2018-12-24T06:14:37.237Z,83.56
2018-12-24T06:15:37.220Z,83.80
2018-12-24T06:16:37.235Z,83.87
2018-12-24T06:17:37.204Z,84.53
2018-12-24T06:18:37.187Z,84.33
2018-12-24T06:19:37.181Z,83.56
2018-12-24T06:20:37.713Z,83.76
2018-12-24T06:21:37.175Z,82.82
2018-12-24T06:22:37.146Z,81.68
2018-12-24T06:23:37.148Z,81.41
2018-12-24T06:24:37.117Z,80.88
2018-12-24T06:25:37.113Z,80.57
2018-12-24T06:26:37.123Z,80.99
2018-12-24T06:27:37.107Z,79.39
2018-12-24T06:28:37.076Z,78.87
2018-12-24T06:29:37.090Z,78.66
2018-12-24T06:30:37.084Z,78.17
2018-12-24T06:31:37.079Z,78.66
2018-12-24T06:32:37.035Z,79.22
2018-12-24T06:33:37.056Z,79.60
2018-12-24T06:34:37.019Z,79.49
2018-12-24T06:35:37.013Z,80.43
2018-12-24T06:36:37.131Z,80.99
2018-12-24T06:37:36.994Z,81.68
2018-12-24T06:38:36.973Z,82.31
2018-12-24T06:39:36.954Z,82.72
2018-12-24T06:40:36.946Z,82.72
2018-12-24T06:41:36.933Z,82.82
2018-12-24T06:42:36.934Z,82.65
2018-12-24T06:43:36.912Z,83.70
2018-12-24T06:44:36.900Z,83.74
2018-12-24T06:45:36.894Z,83.84
2018-12-24T06:46:36.886Z,85.30
2018-12-24T06:47:36.890Z,85.41
2018-12-24T06:48:36.867Z,85.34
2018-12-24T06:49:36.858Z,85.93
2018-12-24T06:50:36.854Z,86.07
2018-12-24T06:51:36.821Z,86.18
2018-12-24T06:52:36.829Z,86.69
2018-12-24T06:53:36.825Z,86.80
2018-12-24T06:54:36.790Z,86.38
2018-12-24T06:55:36.782Z,86.91
2018-12-24T06:56:36.765Z,87.01
2018-12-24T06:57:36.767Z,86.18
2018-12-24T06:58:36.755Z,87.01
2018-12-24T06:59:36.734Z,86.35
2018-12-24T07:00:36.732Z,86.59
2018-12-24T07:01:36.718Z,87.01
2018-12-24T07:02:36.715Z,86.87
2018-12-24T07:03:36.694Z,86.69
2018-12-24T07:04:36.682Z,85.93
2018-12-24T07:05:36.667Z,86.35
2018-12-24T07:06:36.656Z,86.76
2018-12-24T07:07:36.677Z,85.61
2018-12-24T07:08:36.773Z,84.36
2018-12-24T07:09:36.623Z,84.99
2018-12-24T07:10:36.654Z,85.20
2018-12-24T07:11:36.612Z,84.67
2018-12-24T07:12:36.619Z,85.20
2018-12-24T07:13:36.593Z,85.20
2018-12-24T07:14:36.562Z,85.41
2018-12-24T07:15:36.569Z,81.55
2018-12-24T07:16:36.554Z,80.23
2018-12-24T07:17:36.649Z,80.30
2018-12-24T07:18:36.537Z,80.09
2018-12-24T07:19:36.533Z,80.19
2018-12-24T07:20:36.528Z,79.88
2018-12-24T07:21:36.487Z,79.29
2018-12-24T07:22:36.500Z,78.63
2018-12-24T07:23:36.484Z,78.52
2018-12-24T07:24:36.467Z,77.83
2018-12-24T07:25:36.451Z,77.83
2018-12-24T07:26:36.510Z,78.31
2018-12-24T07:27:36.428Z,78.52
2018-12-24T07:28:36.442Z,78.63
2018-12-24T07:29:36.462Z,78.52
2018-12-24T07:30:36.471Z,78.00
2018-12-24T07:31:36.405Z,77.17
2018-12-24T07:32:36.381Z,77.72
2018-12-24T07:33:36.404Z,77.62
2018-12-24T07:34:36.359Z,77.58
2018-12-24T07:35:36.363Z,78.31
2018-12-24T07:36:36.356Z,78.45
2018-12-24T07:37:36.309Z,78.35
2018-12-24T07:38:36.368Z,78.35
2018-12-24T07:39:36.291Z,77.31
2018-12-24T07:40:36.290Z,77.41
2018-12-24T07:41:36.283Z,78.11
2018-12-24T07:42:36.261Z,77.72
2018-12-24T07:43:36.286Z,78.04
2018-12-24T07:44:36.283Z,77.94
2018-12-24T07:45:36.235Z,77.72
2018-12-24T07:46:36.226Z,77.41
2018-12-24T07:47:36.254Z,76.89
2018-12-24T07:48:36.248Z,77.20
2018-12-24T07:49:36.186Z,77.31
2018-12-24T07:50:36.173Z,77.31
2018-12-24T07:51:36.166Z,77.72
2018-12-24T07:52:36.177Z,77.94
2018-12-24T07:53:36.171Z,78.04
2018-12-24T07:54:36.145Z,77.94
2018-12-24T07:55:36.132Z,78.56
2018-12-24T07:56:36.110Z,78.66
2018-12-24T07:57:36.100Z,79.29
2018-12-24T07:58:36.104Z,79.08
2018-12-24T07:59:36.089Z,78.45
2018-12-24T08:00:36.050Z,78.25
2018-12-24T08:01:36.055Z,78.66
2018-12-24T08:02:36.046Z,78.66
2018-12-24T08:03:36.036Z,77.94
2018-12-24T08:04:36.046Z,78.59
2018-12-24T08:05:36.014Z,76.68
2018-12-24T08:06:35.994Z,76.40
2018-12-24T08:07:35.986Z,76.16
2018-12-24T08:08:35.999Z,75.01
2018-12-24T08:09:35.984Z,74.73
2018-12-24T08:10:35.961Z,74.84
2018-12-24T08:11:35.936Z,75.05
2018-12-24T08:12:35.927Z,74.91
2018-12-24T08:13:35.980Z,74.28
2018-12-24T08:14:35.923Z,74.42
2018-12-24T08:15:35.900Z,74.32
2018-12-24T08:16:35.894Z,74.80
2018-12-24T08:17:35.886Z,74.42
2018-12-24T08:18:35.870Z,74.42
2018-12-24T08:19:35.878Z,74.63
2018-12-24T08:20:35.888Z,73.90
2018-12-24T08:21:35.844Z,74.52
2018-12-24T08:22:35.847Z,74.94
2018-12-24T08:23:35.814Z,75.15
2018-12-24T08:24:35.810Z,75.18
2018-12-24T08:25:35.790Z,75.60
2018-12-24T08:26:35.784Z,75.50
2018-12-24T08:27:35.789Z,75.29
2018-12-24T08:28:35.761Z,76.86
2018-12-24T08:29:35.763Z,77.03
2018-12-24T08:30:35.737Z,76.96
2018-12-24T08:31:35.728Z,76.65
2018-12-24T08:32:35.718Z,76.54
2018-12-24T08:33:35.803Z,76.65
2018-12-24T08:34:35.732Z,76.96
2018-12-24T08:35:35.680Z,76.65
2018-12-24T08:36:35.671Z,76.23
2018-12-24T08:37:35.650Z,76.75
2018-12-24T08:38:35.651Z,76.44
2018-12-24T08:39:35.665Z,76.65
2018-12-24T08:40:35.634Z,76.23
2018-12-24T08:41:35.622Z,76.09
2018-12-24T08:42:35.608Z,77.06
2018-12-24T08:43:35.597Z,77.38
2018-12-24T08:44:41.723Z,76.96
2018-12-24T08:45:36.576Z,76.65
2018-12-24T08:46:35.564Z,77.38
2018-12-24T08:47:35.550Z,77.48
2018-12-24T08:48:35.531Z,77.48
2018-12-24T08:49:35.568Z,78.11
2018-12-24T08:50:35.526Z,77.90
2018-12-24T08:51:35.509Z,78.00
2018-12-24T08:52:35.507Z,76.75
2018-12-24T08:53:35.499Z,76.75
2018-12-24T08:54:35.483Z,76.65
2018-12-24T08:55:35.460Z,76.23
2018-12-24T08:56:35.443Z,76.75
2018-12-24T08:57:35.449Z,76.44
2018-12-24T08:58:35.440Z,76.40
2018-12-24T08:59:35.439Z,76.86
2018-12-24T09:00:35.397Z,77.06
2018-12-24T09:01:35.389Z,76.72
2018-12-24T09:02:35.379Z,77.06
2018-12-24T09:03:35.369Z,76.20
2018-12-24T09:04:35.462Z,76.96
2018-12-24T09:05:35.355Z,77.17
2018-12-24T09:06:35.325Z,77.17
2018-12-24T09:07:35.330Z,76.86
2018-12-24T09:08:35.337Z,76.96
2018-12-24T09:09:35.337Z,77.69
2018-12-24T09:10:35.329Z,77.34
2018-12-24T09:11:35.283Z,77.03
2018-12-24T09:12:35.286Z,76.51
2018-12-24T09:13:35.265Z,76.92
2018-12-24T09:14:35.258Z,76.92
2018-12-24T09:15:35.356Z,76.82
2018-12-24T09:16:35.225Z,76.61
2018-12-24T09:17:35.232Z,76.61
2018-12-24T09:18:35.209Z,76.72
2018-12-24T09:19:35.205Z,76.40
2018-12-24T09:20:35.206Z,77.03
2018-12-24T09:21:35.178Z,76.61
2018-12-24T09:22:35.167Z,76.82
2018-12-24T09:23:35.159Z,76.82
2018-12-24T09:24:35.162Z,76.72
2018-12-24T09:25:35.150Z,76.40
2018-12-24T09:26:35.123Z,76.40
2018-12-24T09:27:35.131Z,76.16
2018-12-24T09:28:35.093Z,75.98
2018-12-24T09:29:35.083Z,75.43
2018-12-24T09:30:35.113Z,75.36
2018-12-24T09:31:35.065Z,75.74
2018-12-24T09:32:35.059Z,76.30
2018-12-24T09:33:35.044Z,77.03
2018-12-24T09:34:35.047Z,76.92
2018-12-24T09:35:35.041Z,75.53
2018-12-24T09:36:35.021Z,74.80
2018-12-24T09:37:35.007Z,75.32
2018-12-24T09:38:34.987Z,75.05
2018-12-24T09:39:34.970Z,74.94
2018-12-24T09:40:34.983Z,75.05
2018-12-24T09:41:34.949Z,74.84
2018-12-24T09:42:34.949Z,75.98
2018-12-24T09:43:34.951Z,75.57
2018-12-24T09:44:34.921Z,74.73
2018-12-24T09:45:34.931Z,75.26
2018-12-24T09:46:34.893Z,74.80
2018-12-24T09:47:34.931Z,74.73
2018-12-24T09:48:34.877Z,75.67
2018-12-24T09:49:34.876Z,75.63
2018-12-24T09:50:34.898Z,75.05
2018-12-24T09:51:34.852Z,75.78
2018-12-24T09:52:34.853Z,75.57
2018-12-24T09:53:34.818Z,76.06
2018-12-24T09:54:34.809Z,75.67
2018-12-24T09:55:34.807Z,75.85
2018-12-24T09:56:34.825Z,75.85
2018-12-24T09:57:34.800Z,76.40
2018-12-24T09:58:34.772Z,77.00
2018-12-24T09:59:34.763Z,76.16
2018-12-24T10:00:34.757Z,76.06
2018-12-24T10:01:34.761Z,75.01
2018-12-24T10:02:34.734Z,75.01
2018-12-24T10:03:34.715Z,74.28
2018-12-24T10:04:34.822Z,74.70
2018-12-24T10:05:34.689Z,74.94
2018-12-24T10:06:34.732Z,74.60
2018-12-24T10:07:34.670Z,75.12
2018-12-24T10:08:34.673Z,75.67
2018-12-24T10:09:34.641Z,75.85
2018-12-24T10:10:34.639Z,73.58
2018-12-24T10:11:34.672Z,74.18
2018-12-24T10:12:34.646Z,74.07
2018-12-24T10:13:34.604Z,73.48
2018-12-24T10:14:34.651Z,74.11
2018-12-24T10:15:34.584Z,74.70
2018-12-24T10:16:34.604Z,75.01
2018-12-24T10:17:34.568Z,75.53
2018-12-24T10:18:34.570Z,74.80
2018-12-24T10:19:34.549Z,74.49
2018-12-24T10:20:34.535Z,74.60
2018-12-24T10:21:34.544Z,74.94
2018-12-24T10:22:34.506Z,74.80
2018-12-24T10:23:34.504Z,75.32
2018-12-24T10:24:34.474Z,74.91
2018-12-24T10:25:34.473Z,75.22
2018-12-24T10:26:34.487Z,75.12
2018-12-24T10:27:34.450Z,75.43
2018-12-24T10:28:34.463Z,75.43
2018-12-24T10:29:34.440Z,74.80
2018-12-24T10:30:34.420Z,75.53
2018-12-24T10:31:34.551Z,75.95
2018-12-24T10:32:34.408Z,76.37
2018-12-24T10:33:34.386Z,76.79
2018-12-24T10:34:34.374Z,76.89
2018-12-24T10:35:34.361Z,77.41
2018-12-24T10:36:34.361Z,77.00
2018-12-24T10:37:34.355Z,77.31
2018-12-24T10:38:34.354Z,77.62
2018-12-24T10:39:34.356Z,77.20
2018-12-24T10:40:34.315Z,77.20
2018-12-24T10:41:34.294Z,77.31
2018-12-24T10:42:34.295Z,77.51
2018-12-24T10:43:34.287Z,77.51
2018-12-24T10:44:34.277Z,77.31
2018-12-24T10:45:34.249Z,77.62
2018-12-24T10:46:34.247Z,76.68
2018-12-24T10:47:34.247Z,76.72
2018-12-24T10:48:34.220Z,75.53
2018-12-24T10:49:34.212Z,74.18
2018-12-24T10:50:34.191Z,73.97
2018-12-24T10:51:34.199Z,74.28
2018-12-24T10:52:34.194Z,73.38
2018-12-24T10:53:34.169Z,74.32
2018-12-24T10:54:34.171Z,73.38
2018-12-24T10:55:34.158Z,74.21
2018-12-24T10:56:34.158Z,73.90
2018-12-24T10:57:34.160Z,73.90
2018-12-24T10:58:34.106Z,74.01
2018-12-24T10:59:34.139Z,73.38
2018-12-24T11:00:34.123Z,73.90
2018-12-24T11:01:34.095Z,74.01
2018-12-24T11:02:34.084Z,72.96
2018-12-24T11:03:34.058Z,73.17
2018-12-24T11:04:34.065Z,73.17
2018-12-24T11:05:34.033Z,73.17
2018-12-24T11:06:34.018Z,73.27
2018-12-24T11:07:34.022Z,74.21
2018-12-24T11:08:34.019Z,73.97
2018-12-24T11:09:33.991Z,72.44
2018-12-24T11:10:33.988Z,72.09
2018-12-24T11:11:34.082Z,72.19
2018-12-24T11:12:34.001Z,72.33
2018-12-24T11:13:33.961Z,72.41
2018-12-24T11:14:33.931Z,72.82
2018-12-24T11:15:33.931Z,72.72
2018-12-24T11:16:33.916Z,72.64
2018-12-24T11:17:33.938Z,72.82
2018-12-24T11:18:33.895Z,72.85
2018-12-24T11:19:33.891Z,73.34
2018-12-24T11:20:33.954Z,73.07
2018-12-24T11:21:33.867Z,74.28
2018-12-24T11:22:33.847Z,74.91
2018-12-24T11:23:33.855Z,76.61
2018-12-24T11:24:33.833Z,77.62
2018-12-24T11:25:33.936Z,78.14
2018-12-24T11:26:33.808Z,78.66
2018-12-24T11:27:33.800Z,79.08
2018-12-24T11:28:33.915Z,79.29
2018-12-24T11:29:33.762Z,80.23
2018-12-24T11:30:33.775Z,80.68
2018-12-24T11:31:33.755Z,80.47
2018-12-24T11:32:33.752Z,80.68
2018-12-24T11:33:33.805Z,80.05
2018-12-24T11:34:33.728Z,80.05
2018-12-24T11:35:33.707Z,79.11
2018-12-24T11:36:33.708Z,79.11
2018-12-24T11:37:33.707Z,77.24
2018-12-24T11:38:33.692Z,77.24
2018-12-24T11:39:33.667Z,77.48
2018-12-24T11:40:33.668Z,77.48
2018-12-24T11:41:33.648Z,77.45
2018-12-24T11:42:33.660Z,77.27
2018-12-24T11:43:33.654Z,77.24
2018-12-24T11:44:33.652Z,77.14
2018-12-24T11:45:35.051Z,75.78
2018-12-24T11:46:33.594Z,75.67
2018-12-24T11:47:33.586Z,75.36
2018-12-24T11:48:33.585Z,74.84
2018-12-24T11:49:33.565Z,74.84
2018-12-24T11:50:33.541Z,74.42
2018-12-24T11:51:33.574Z,74.32
2018-12-24T11:52:33.561Z,74.94
2018-12-24T11:53:33.542Z,75.05
2018-12-24T11:54:33.591Z,74.94
2018-12-24T11:55:33.495Z,74.73
2018-12-24T11:56:33.482Z,74.91
2018-12-24T11:57:33.459Z,74.60
2018-12-24T11:58:33.532Z,74.80
2018-12-24T11:59:33.447Z,74.70
2018-12-24T12:00:33.457Z,74.80
2018-12-24T12:01:33.429Z,74.32
2018-12-24T12:02:33.408Z,73.38
2018-12-24T12:03:33.390Z,74.42
2018-12-24T12:04:33.397Z,74.28
2018-12-24T12:05:33.375Z,73.97
2018-12-24T12:06:33.373Z,74.38
2018-12-24T12:07:33.348Z,74.28
2018-12-24T12:08:33.335Z,74.18
2018-12-24T12:09:33.357Z,73.34
2018-12-24T12:10:33.339Z,73.97
2018-12-24T12:11:33.308Z,73.76
2018-12-24T12:12:33.306Z,73.97
2018-12-24T12:13:33.285Z,73.13
2018-12-24T12:14:33.292Z,74.07
2018-12-24T12:15:33.274Z,73.13
2018-12-24T12:16:33.263Z,73.13
2018-12-24T12:17:33.253Z,73.24
2018-12-24T12:18:33.239Z,73.24
2018-12-24T12:19:33.249Z,73.24
2018-12-24T12:20:33.216Z,73.24
2018-12-24T12:21:33.217Z,74.38
2018-12-24T12:22:33.199Z,74.07
2018-12-24T12:23:33.205Z,74.28
2018-12-24T12:24:33.189Z,74.35
2018-12-24T12:25:33.148Z,73.21
2018-12-24T12:26:33.151Z,72.89
2018-12-24T12:27:33.128Z,74.15
2018-12-24T12:28:33.135Z,73.83
2018-12-24T12:29:33.136Z,72.78
2018-12-24T12:30:33.229Z,72.37
2018-12-24T12:31:33.084Z,73.00
2018-12-24T12:32:33.081Z,72.68
2018-12-24T12:33:33.068Z,73.10
2018-12-24T12:34:33.103Z,73.10
2018-12-24T12:35:33.046Z,73.10
2018-12-24T12:36:33.054Z,74.04
2018-12-24T12:37:33.197Z,74.35
2018-12-24T12:38:33.041Z,73.21
2018-12-24T12:39:33.040Z,73.21
2018-12-24T12:40:33.016Z,71.43
2018-12-24T12:41:32.976Z,70.91
2018-12-24T12:42:32.981Z,71.64
2018-12-24T12:43:32.948Z,71.33
2018-12-24T12:44:33.026Z,71.64
2018-12-24T12:45:32.951Z,71.95
2018-12-24T12:46:33.025Z,72.27
2018-12-24T12:47:32.949Z,72.27
2018-12-24T12:48:32.916Z,72.37
2018-12-24T12:49:32.950Z,73.00
2018-12-24T12:50:32.968Z,73.31
2018-12-24T12:51:32.943Z,72.16
2018-12-24T12:52:32.875Z,71.75